Time;durP1;ratioP1;P1;durP2;ratioP2;P2;SDS_P1;SDS_P2;PMS_P1;PMS_P2;Temp;Humidity;BMP_temperature;BMP_pressure;BME280_temperature;BME280_humidity;BME280_pressure;Samples;Min_cycle;Max_cycle;Signal;HPM_P1;HPM_P2
2022/12/07 00:01:19;;;;;;;45.67;27.03;;;;;;;;;;5047666;28;20068;-78
2022/12/07 00:03:46;;;;;;;42.97;25.70;;;;;;;;;;5062454;28;20021;-79
2022/12/07 00:06:13;;;;;;;50.53;28.50;;;;;;;;;;5055248;28;20510;-78
2022/12/07 00:08:39;;;;;;;45.17;25.50;;;;;;;;;;5060122;28;20021;-79
2022/12/07 00:11:06;;;;;;;42.47;26.77;;;;;;;;;;5063964;28;20029;-79
2022/12/07 00:13:33;;;;;;;48.23;26.77;;;;;;;;;;5048859;28;21650;-79
2022/12/07 00:16:07;;;;;;;46.00;27.53;;;;;;;;;;5050415;28;20079;-79
2022/12/07 00:18:33;;;;;;;45.47;26.70;;;;;;;;;;5060852;28;20033;-79
2022/12/07 00:21:02;;;;;;;44.43;26.83;;;;;;;;;;5050516;28;20063;-79
2022/12/07 00:23:28;;;;;;;56.60;28.13;;;;;;;;;;5060107;28;20025;-79
2022/12/07 00:25:54;;;;;;;45.07;27.43;;;;;;;;;;5063601;28;20029;-79
2022/12/07 00:28:20;;;;;;;50.80;29.10;;;;;;;;;;5058346;28;20035;-79
2022/12/07 00:30:46;;;;;;;40.97;26.77;;;;;;;;;;5060267;28;20116;-78
2022/12/07 00:33:15;;;;;;;42.97;26.27;;;;;;;;;;5062670;28;20021;-80
2022/12/07 00:35:41;;;;;;;45.10;26.17;;;;;;;;;;5062313;28;20024;-79
2022/12/07 00:38:07;;;;;;;45.47;28.03;;;;;;;;;;5061772;28;20122;-80
2022/12/07 00:40:35;;;;;;;43.27;26.80;;;;;;;;;;5065529;28;20025;-79
2022/12/07 00:43:01;;;;;;;47.20;28.63;;;;;;;;;;5051238;28;20036;-79
2022/12/07 00:45:27;;;;;;;48.37;28.13;;;;;;;;;;5043387;28;20029;-78
2022/12/07 00:47:53;;;;;;;46.07;27.93;;;;;;;;;;5062350;28;20033;-79
2022/12/07 00:50:19;;;;;;;46.10;25.50;;;;;;;;;;5060769;28;20029;-79
2022/12/07 00:52:45;;;;;;;46.53;26.73;;;;;;;;;;5062720;28;20029;-79
2022/12/07 00:55:11;;;;;;;45.07;27.20;;;;;;;;;;5043411;28;20449;-78
2022/12/07 00:57:37;;;;;;;41.50;27.07;;;;;;;;;;5061024;28;20043;-78
2022/12/07 01:00:04;;;;;;;45.57;27.13;;;;;;;;;;5058946;28;20037;-79
2022/12/07 01:02:30;;;;;;;44.40;25.70;;;;;;;;;;5048287;28;20040;-79
2022/12/07 01:04:56;;;;;;;39.97;25.23;;;;;;;;;;5048095;28;20892;-79
2022/12/07 01:07:22;;;;;;;42.13;26.23;;;;;;;;;;5061422;28;20174;-79
2022/12/07 01:09:48;;;;;;;45.37;28.03;;;;;;;;;;5058969;28;20833;-78
2022/12/07 01:12:16;;;;;;;44.97;27.20;;;;;;;;;;5062855;28;20030;-79
2022/12/07 01:14:45;;;;;;;50.50;28.53;;;;;;;;;;5049134;28;20457;-78
2022/12/07 01:17:11;;;;;;;49.67;29.60;;;;;;;;;;5051729;28;20033;-80
2022/12/07 01:19:37;;;;;;;47.00;26.77;;;;;;;;;;5051581;28;20033;-79
2022/12/07 01:22:03;;;;;;;49.07;27.60;;;;;;;;;;5068717;28;20461;-80
2022/12/07 01:24:29;;;;;;;48.33;29.47;;;;;;;;;;5061838;28;20025;-79
2022/12/07 01:26:55;;;;;;;52.43;31.20;;;;;;;;;;5059870;28;20051;-79
2022/12/07 01:29:21;;;;;;;51.77;29.07;;;;;;;;;;5055642;28;20025;-79
2022/12/07 01:31:49;;;;;;;52.37;31.23;;;;;;;;;;5050784;28;20040;-79
2022/12/07 01:34:15;;;;;;;51.43;31.97;;;;;;;;;;5056099;28;20035;-80
2022/12/07 01:36:41;;;;;;;52.27;32.77;;;;;;;;;;5054616;28;20060;-79
2022/12/07 01:39:08;;;;;;;60.23;34.10;;;;;;;;;;5054255;28;20032;-80
2022/12/07 01:41:35;;;;;;;55.10;33.80;;;;;;;;;;5059343;28;20036;-79
2022/12/07 01:44:07;;;;;;;52.93;32.30;;;;;;;;;;5054383;28;20116;-79
2022/12/07 01:46:33;;;;;;;54.67;34.20;;;;;;;;;;5054173;28;20056;-79
2022/12/07 01:49:00;;;;;;;58.00;34.17;;;;;;;;;;5054361;28;20331;-79
2022/12/07 01:51:27;;;;;;;60.23;34.43;;;;;;;;;;5047470;28;20044;-79
2022/12/07 01:53:53;;;;;;;58.97;34.30;;;;;;;;;;5063637;28;20028;-79
2022/12/07 01:56:20;;;;;;;56.70;34.07;;;;;;;;;;5065662;28;20108;-78
2022/12/07 01:58:49;;;;;;;60.60;36.43;;;;;;;;;;5059581;28;20025;-78
2022/12/07 02:01:16;;;;;;;59.07;35.13;;;;;;;;;;5050857;28;20052;-79
2022/12/07 02:03:43;;;;;;;63.93;34.67;;;;;;;;;;5041301;28;20048;-78
2022/12/07 02:06:19;;;;;;;64.23;36.73;;;;;;;;;;5056505;28;20448;-78
2022/12/07 02:08:45;;;;;;;58.07;33.80;;;;;;;;;;5055029;28;20029;-79
2022/12/07 02:11:14;;;;;;;54.47;33.60;;;;;;;;;;5054312;28;20116;-79
2022/12/07 02:13:41;;;;;;;58.67;32.93;;;;;;;;;;5067025;28;20090;-79
2022/12/07 02:16:25;;;;;;;57.57;34.70;;;;;;;;;;5069064;28;20025;-79
2022/12/07 02:18:57;;;;;;;52.47;33.20;;;;;;;;;;5069085;28;20040;-78
2022/12/07 02:21:39;;;;;;;53.72;33.45;;;;;;;;;;5054603;28;20040;-78
2022/12/07 02:24:40;;;;;;;56.77;34.37;;;;;;;;;;5054187;28;20029;-79
2022/12/07 02:27:41;;;;;;;65.80;35.83;;;;;;;;;;5009958;28;20073;-78
2022/12/07 02:30:09;;;;;;;60.63;34.77;;;;;;;;;;5031516;28;20041;-79
2022/12/07 02:32:50;;;;;;;54.83;34.47;;;;;;;;;;5066563;28;20033;-78
2022/12/07 02:35:22;;;;;;;56.53;33.57;;;;;;;;;;5064373;28;20025;-79
2022/12/07 02:37:48;;;;;;;54.13;35.25;;;;;;;;;;5059514;28;20028;-78
2022/12/07 02:40:17;;;;;;;59.30;36.23;;;;;;;;;;5057660;28;20038;-78
2022/12/07 02:42:47;;;;;;;57.87;34.50;;;;;;;;;;5055280;28;20155;-79
2022/12/07 02:45:14;;;;;;;59.37;35.77;;;;;;;;;;5058427;28;20022;-79
2022/12/07 02:47:44;;;;;;;61.17;36.17;;;;;;;;;;5061824;28;20017;-78
2022/12/07 02:50:10;;;;;;;65.37;38.17;;;;;;;;;;5057444;28;20123;-79
2022/12/07 02:52:36;;;;;;;63.83;37.00;;;;;;;;;;5065976;28;20047;-78
2022/12/07 02:55:04;;;;;;;63.77;37.83;;;;;;;;;;5045497;28;20041;-79
2022/12/07 02:57:30;;;;;;;68.53;36.17;;;;;;;;;;5056663;28;20033;-79
2022/12/07 02:59:56;;;;;;;60.73;36.60;;;;;;;;;;5061035;28;20044;-78
2022/12/07 03:02:25;;;;;;;66.80;37.43;;;;;;;;;;5057577;28;20361;-79
2022/12/07 03:04:51;;;;;;;62.77;38.13;;;;;;;;;;5062191;28;20028;-79
2022/12/07 03:07:32;;;;;;;64.97;37.37;;;;;;;;;;5056858;28;20064;-79
2022/12/07 03:10:06;;;;;;;66.47;37.43;;;;;;;;;;5066108;28;20022;-78
2022/12/07 03:12:38;;;;;;;61.73;37.57;;;;;;;;;;5073046;28;20033;-78
2022/12/07 03:15:17;;;;;;;65.15;37.13;;;;;;;;;;5056225;28;20944;-79
2022/12/07 03:17:44;;;;;;;63.30;37.63;;;;;;;;;;5065405;28;20053;-78
2022/12/07 03:20:12;;;;;;;67.37;38.27;;;;;;;;;;5039788;28;20424;-78
2022/12/07 03:22:40;;;;;;;70.77;38.77;;;;;;;;;;5056814;28;20028;-78
2022/12/07 03:25:11;;;;;;;71.27;40.53;;;;;;;;;;5060813;28;20050;-79
2022/12/07 03:27:45;;;;;;;68.03;39.63;;;;;;;;;;5062948;28;20024;-79
2022/12/07 03:30:15;;;;;;;68.83;39.13;;;;;;;;;;5053425;28;20022;-79
2022/12/07 03:32:49;;;;;;;69.23;38.70;;;;;;;;;;5068480;28;20040;-79
2022/12/07 03:35:18;;;;;;;75.60;40.47;;;;;;;;;;5056825;28;20358;-79
2022/12/07 03:37:49;;;;;;;79.90;41.60;;;;;;;;;;5056565;28;20029;-79
2022/12/07 03:40:26;;;;;;;68.60;41.37;;;;;;;;;;5057072;28;20053;-79
2022/12/07 03:42:53;;;;;;;69.50;40.97;;;;;;;;;;5056739;28;20029;-78
2022/12/07 03:45:20;;;;;;;72.23;40.13;;;;;;;;;;5056936;28;20508;-79
2022/12/07 03:48:02;;;;;;;68.53;39.70;;;;;;;;;;5057570;28;20028;-79
2022/12/07 03:50:37;;;;;;;69.88;40.15;;;;;;;;;;5066277;28;20448;-78
2022/12/07 03:53:07;;;;;;;68.30;41.10;;;;;;;;;;5057213;28;20025;-79
2022/12/07 03:55:36;;;;;;;79.43;40.30;;;;;;;;;;5056681;28;20079;-78
2022/12/07 03:58:11;;;;;;;70.53;40.83;;;;;;;;;;5056695;28;20037;-79
2022/12/07 04:00:38;;;;;;;75.80;41.37;;;;;;;;;;5056167;28;20110;-78
2022/12/07 04:03:04;;;;;;;71.70;40.40;;;;;;;;;;5051898;28;20361;-78
2022/12/07 04:05:30;;;;;;;71.53;39.00;;;;;;;;;;5056215;28;20402;-79
2022/12/07 04:07:56;;;;;;;71.30;39.67;;;;;;;;;;5060470;28;20017;-79
2022/12/07 04:10:22;;;;;;;66.40;38.40;;;;;;;;;;5056613;28;20037;-79
2022/12/07 04:12:48;;;;;;;73.63;38.87;;;;;;;;;;5066070;28;20445;-79
2022/12/07 04:15:14;;;;;;;73.80;39.83;;;;;;;;;;5064736;28;20028;-80
2022/12/07 04:17:40;;;;;;;63.50;38.07;;;;;;;;;;5040973;28;20095;-78
2022/12/07 04:20:06;;;;;;;72.50;40.87;;;;;;;;;;5056117;28;20087;-79
2022/12/07 04:22:32;;;;;;;67.70;37.87;;;;;;;;;;5074829;28;20060;-78
2022/12/07 04:24:58;;;;;;;66.10;37.73;;;;;;;;;;5066540;28;20025;-78
2022/12/07 04:27:24;;;;;;;65.73;38.40;;;;;;;;;;5071843;28;20024;-79
2022/12/07 04:29:53;;;;;;;69.60;38.10;;;;;;;;;;5063792;28;20017;-79
2022/12/07 04:32:19;;;;;;;66.30;35.67;;;;;;;;;;5061807;28;20030;-79
2022/12/07 04:34:45;;;;;;;65.97;37.60;;;;;;;;;;5053778;28;20460;-78
2022/12/07 04:37:11;;;;;;;61.00;36.63;;;;;;;;;;5056369;28;20496;-78
2022/12/07 04:39:37;;;;;;;75.20;38.80;;;;;;;;;;5056413;28;20024;-78
2022/12/07 04:42:06;;;;;;;62.37;37.63;;;;;;;;;;5063971;28;20381;-79
2022/12/07 04:44:34;;;;;;;67.27;38.70;;;;;;;;;;5064654;28;20036;-79
2022/12/07 04:47:00;;;;;;;69.80;38.13;;;;;;;;;;5055738;28;20167;-78
2022/12/07 04:49:26;;;;;;;70.83;38.00;;;;;;;;;;5057522;28;20021;-79
2022/12/07 04:51:52;;;;;;;68.17;38.83;;;;;;;;;;5074473;28;20036;-79
2022/12/07 04:54:19;;;;;;;68.23;36.77;;;;;;;;;;5055417;28;20059;-79
2022/12/07 04:56:45;;;;;;;64.40;36.40;;;;;;;;;;5055434;28;20343;-79
2022/12/07 04:59:11;;;;;;;67.67;37.57;;;;;;;;;;5054945;28;20133;-79
2022/12/07 05:01:38;;;;;;;66.17;37.40;;;;;;;;;;5054830;28;20040;-79
2022/12/07 05:04:04;;;;;;;71.53;39.47;;;;;;;;;;5054875;28;20357;-79
2022/12/07 05:06:30;;;;;;;65.93;39.53;;;;;;;;;;5055090;28;20487;-79
2022/12/07 05:08:56;;;;;;;75.93;39.60;;;;;;;;;;5049087;28;20121;-78
2022/12/07 05:11:40;;;;;;;72.87;39.43;;;;;;;;;;5054982;28;20033;-78
2022/12/07 05:14:09;;;;;;;66.97;39.63;;;;;;;;;;5044710;28;20116;-79
2022/12/07 05:16:35;;;;;;;70.90;38.83;;;;;;;;;;5045652;28;20044;-78
2022/12/07 05:19:07;;;;;;;64.30;37.17;;;;;;;;;;5061250;28;20067;-79
2022/12/07 05:21:33;;;;;;;71.43;38.50;;;;;;;;;;5044000;28;21744;-78
2022/12/07 05:23:59;;;;;;;65.80;37.27;;;;;;;;;;5049685;28;20025;-78
2022/12/07 05:26:26;;;;;;;60.40;36.47;;;;;;;;;;5058726;28;20471;-79
2022/12/07 05:28:52;;;;;;;63.93;35.73;;;;;;;;;;5056998;28;20083;-78
2022/12/07 05:31:19;;;;;;;64.50;37.23;;;;;;;;;;5045600;28;20493;-78
2022/12/07 05:33:45;;;;;;;70.73;38.60;;;;;;;;;;5063160;28;20052;-78
2022/12/07 05:36:13;;;;;;;65.80;36.27;;;;;;;;;;5046557;28;20025;-79
2022/12/07 05:38:39;;;;;;;62.93;36.37;;;;;;;;;;5056665;28;20025;-79
2022/12/07 05:41:07;;;;;;;62.37;35.57;;;;;;;;;;5044311;28;20453;-77
2022/12/07 05:43:33;;;;;;;70.37;37.30;;;;;;;;;;5050702;28;20400;-79
2022/12/07 05:46:00;;;;;;;60.40;35.40;;;;;;;;;;5043738;28;20358;-78
2022/12/07 05:48:26;;;;;;;67.47;37.97;;;;;;;;;;5042596;28;20017;-78
2022/12/07 05:50:52;;;;;;;60.57;36.37;;;;;;;;;;5041936;28;20429;-78
2022/12/07 05:53:19;;;;;;;58.13;35.80;;;;;;;;;;5060783;28;20034;-78
2022/12/07 05:55:45;;;;;;;69.47;38.33;;;;;;;;;;5047102;28;20479;-78
2022/12/07 06:00:56;;;;;;;70.83;39.27;;;;;;;;;;5049064;28;20051;-78
2022/12/07 06:03:22;;;;;;;70.53;39.90;;;;;;;;;;5056637;28;20048;-77
2022/12/07 06:05:48;;;;;;;78.23;40.67;;;;;;;;;;5047227;28;20044;-77
2022/12/07 06:08:15;;;;;;;74.77;38.93;;;;;;;;;;5040002;28;20485;-78
2022/12/07 06:10:41;;;;;;;74.03;40.83;;;;;;;;;;5042206;28;20079;-78
2022/12/07 06:13:07;;;;;;;80.13;42.60;;;;;;;;;;5059054;28;20044;-78
2022/12/07 06:15:33;;;;;;;86.30;42.87;;;;;;;;;;5045115;28;20033;-79
2022/12/07 06:17:59;;;;;;;86.77;44.53;;;;;;;;;;5044157;28;20052;-79
2022/12/07 06:20:25;;;;;;;98.87;44.37;;;;;;;;;;5059643;28;20091;-79
2022/12/07 06:22:51;;;;;;;87.07;44.80;;;;;;;;;;5042555;28;20033;-79
2022/12/07 06:25:17;;;;;;;79.20;43.00;;;;;;;;;;5058553;28;20044;-78
2022/12/07 06:27:43;;;;;;;79.30;41.57;;;;;;;;;;5044103;28;20384;-77
2022/12/07 06:30:09;;;;;;;81.30;41.20;;;;;;;;;;5044191;28;20056;-78
2022/12/07 06:32:37;;;;;;;79.53;43.83;;;;;;;;;;5062531;28;20102;-79
2022/12/07 06:35:04;;;;;;;74.70;41.87;;;;;;;;;;5064944;28;20544;-79
2022/12/07 06:37:32;;;;;;;76.47;42.30;;;;;;;;;;5051631;28;20037;-78
2022/12/07 06:39:58;;;;;;;79.47;41.30;;;;;;;;;;5064086;28;20028;-78
2022/12/07 06:42:24;;;;;;;73.70;42.20;;;;;;;;;;5048903;28;20118;-78
2022/12/07 06:44:50;;;;;;;75.97;40.37;;;;;;;;;;5049414;28;20029;-79
2022/12/07 06:47:16;;;;;;;72.60;39.47;;;;;;;;;;5062636;28;20409;-78
2022/12/07 06:49:42;;;;;;;72.27;42.03;;;;;;;;;;5048154;28;20098;-79
2022/12/07 06:52:08;;;;;;;74.33;39.50;;;;;;;;;;5047479;28;20385;-78
2022/12/07 06:54:34;;;;;;;72.50;39.97;;;;;;;;;;5065830;28;20025;-78
2022/12/07 06:57:03;;;;;;;76.47;40.77;;;;;;;;;;5051671;28;20053;-78
2022/12/07 06:59:29;;;;;;;76.30;41.47;;;;;;;;;;5051151;28;20049;-78
2022/12/07 07:01:55;;;;;;;73.63;40.73;;;;;;;;;;5048736;28;20038;-77
2022/12/07 07:04:21;;;;;;;70.97;40.50;;;;;;;;;;5061473;28;20358;-75
2022/12/07 07:06:47;;;;;;;80.47;40.90;;;;;;;;;;5050023;28;20021;-78
2022/12/07 07:09:13;;;;;;;73.83;40.00;;;;;;;;;;5063156;28;20029;-77
2022/12/07 07:11:39;;;;;;;68.87;39.77;;;;;;;;;;5051349;28;20032;-77
2022/12/07 07:14:05;;;;;;;69.80;41.10;;;;;;;;;;5062586;28;20029;-79
2022/12/07 07:16:34;;;;;;;70.93;41.27;;;;;;;;;;5054308;28;20033;-78
2022/12/07 07:19:02;;;;;;;68.93;40.73;;;;;;;;;;5059114;28;20025;-79
2022/12/07 07:21:28;;;;;;;68.83;39.70;;;;;;;;;;5054464;28;20036;-78
2022/12/07 07:23:56;;;;;;;68.93;39.23;;;;;;;;;;5056904;28;20029;-79
2022/12/07 07:26:22;;;;;;;70.50;39.07;;;;;;;;;;5048764;28;20492;-78
2022/12/07 07:28:49;;;;;;;67.80;39.07;;;;;;;;;;5056739;28;20025;-77
2022/12/07 07:31:15;;;;;;;71.03;39.33;;;;;;;;;;5060249;28;20436;-78
2022/12/07 07:33:41;;;;;;;74.10;39.37;;;;;;;;;;5072356;28;20024;-78
2022/12/07 07:36:07;;;;;;;68.43;39.93;;;;;;;;;;5058740;28;20026;-79
2022/12/07 07:38:33;;;;;;;74.40;40.87;;;;;;;;;;5056653;28;20032;-78
2022/12/07 07:40:59;;;;;;;85.00;42.73;;;;;;;;;;5056386;28;20021;-79
2022/12/07 07:43:25;;;;;;;81.20;41.70;;;;;;;;;;5055658;28;20405;-79
2022/12/07 07:45:51;;;;;;;74.03;43.67;;;;;;;;;;5074975;28;20029;-79
2022/12/07 07:48:17;;;;;;;75.33;43.93;;;;;;;;;;5050460;28;20493;-77
2022/12/07 07:50:43;;;;;;;71.10;41.57;;;;;;;;;;5058464;28;20064;-79
2022/12/07 07:53:09;;;;;;;74.70;42.63;;;;;;;;;;5056587;28;20021;-79
2022/12/07 07:55:35;;;;;;;67.33;42.00;;;;;;;;;;5070611;28;20533;-78
2022/12/07 07:58:01;;;;;;;65.43;40.03;;;;;;;;;;5057250;28;20521;-77
2022/12/07 08:00:27;;;;;;;70.50;43.00;;;;;;;;;;5056299;28;20099;-78
2022/12/07 08:02:53;;;;;;;65.33;39.77;;;;;;;;;;5048683;28;20032;-79
2022/12/07 08:05:20;;;;;;;74.17;38.40;;;;;;;;;;5056726;28;20176;-78
2022/12/07 08:07:46;;;;;;;62.30;38.37;;;;;;;;;;5072580;28;20104;-78
2022/12/07 08:10:13;;;;;;;66.30;38.83;;;;;;;;;;5064980;28;20025;-78
2022/12/07 08:13:10;;;;;;;65.23;38.00;;;;;;;;;;5057083;28;20036;-78
2022/12/07 08:15:26;;;;;;;62.17;35.73;;;;;;;;;;5056974;28;20048;-78
2022/12/07 08:17:52;;;;;;;57.30;32.83;;;;;;;;;;5065449;28;20780;-78
2022/12/07 08:20:18;;;;;;;52.93;31.87;;;;;;;;;;5051713;28;20029;-78
2022/12/07 08:22:44;;;;;;;53.83;32.37;;;;;;;;;;5065734;28;20052;-78
2022/12/07 08:25:10;;;;;;;52.37;30.87;;;;;;;;;;5060165;28;20434;-79
2022/12/07 08:27:36;;;;;;;49.17;30.07;;;;;;;;;;5056913;28;20032;-77
2022/12/07 08:30:03;;;;;;;50.43;28.40;;;;;;;;;;5049584;28;20021;-79
2022/12/07 08:32:29;;;;;;;45.40;27.77;;;;;;;;;;5048889;28;20056;-78
2022/12/07 08:34:55;;;;;;;44.30;28.60;;;;;;;;;;5068597;28;20067;-78
2022/12/07 08:37:21;;;;;;;47.60;27.23;;;;;;;;;;5056695;28;20035;-79
2022/12/07 08:39:47;;;;;;;47.53;26.67;;;;;;;;;;5046743;28;20029;-78
2022/12/07 08:42:13;;;;;;;42.60;27.53;;;;;;;;;;5054672;28;20108;-78
2022/12/07 08:44:40;;;;;;;44.90;27.23;;;;;;;;;;5055219;28;20051;-78
2022/12/07 08:47:07;;;;;;;44.03;27.63;;;;;;;;;;5064208;28;20017;-78
2022/12/07 08:49:44;;;;;;;44.10;27.47;;;;;;;;;;5055717;28;20050;-77
2022/12/07 08:52:13;;;;;;;43.17;27.07;;;;;;;;;;5055843;28;20025;-78
2022/12/07 08:54:40;;;;;;;44.37;25.60;;;;;;;;;;5055657;28;20040;-78
2022/12/07 08:57:06;;;;;;;35.67;24.33;;;;;;;;;;5051785;28;20030;-79
2022/12/07 08:59:36;;;;;;;39.73;23.77;;;;;;;;;;5047783;28;20433;-79
2022/12/07 09:02:02;;;;;;;42.87;25.90;;;;;;;;;;5057637;28;20045;-78
2022/12/07 09:04:31;;;;;;;39.47;21.13;;;;;;;;;;5055234;28;20025;-78
2022/12/07 09:06:57;;;;;;;43.07;23.33;;;;;;;;;;5049227;28;20116;-78
2022/12/07 09:09:23;;;;;;;45.87;25.17;;;;;;;;;;5064002;28;20021;-78
2022/12/07 09:11:49;;;;;;;35.90;24.00;;;;;;;;;;5046088;28;20030;-80
2022/12/07 09:14:15;;;;;;;36.23;22.37;;;;;;;;;;5049620;28;20365;-80
2022/12/07 09:16:41;;;;;;;40.83;24.80;;;;;;;;;;5055321;28;20036;-80
2022/12/07 09:19:08;;;;;;;37.53;20.40;;;;;;;;;;5054749;28;20029;-80
2022/12/07 09:21:37;;;;;;;36.13;22.60;;;;;;;;;;5053161;28;20028;-80
2022/12/07 09:24:03;;;;;;;38.37;22.97;;;;;;;;;;5061567;28;20028;-79
2022/12/07 09:26:30;;;;;;;41.27;23.13;;;;;;;;;;5059111;28;20025;-78
2022/12/07 09:28:56;;;;;;;36.23;21.23;;;;;;;;;;5060383;28;20377;-79
2022/12/07 09:31:22;;;;;;;38.57;22.57;;;;;;;;;;5042887;28;20021;-80
2022/12/07 09:33:53;;;;;;;34.50;21.17;;;;;;;;;;5044525;28;20036;-79
2022/12/07 09:36:19;;;;;;;38.63;21.10;;;;;;;;;;5068256;28;20037;-79
2022/12/07 09:38:45;;;;;;;35.17;21.20;;;;;;;;;;5054231;28;20024;-79
2022/12/07 09:41:11;;;;;;;33.47;21.20;;;;;;;;;;5054599;28;20094;-79
2022/12/07 09:43:39;;;;;;;36.57;21.80;;;;;;;;;;5048715;28;20025;-79
2022/12/07 09:46:05;;;;;;;33.80;20.20;;;;;;;;;;5045581;28;20045;-79
2022/12/07 09:48:40;;;;;;;36.53;20.23;;;;;;;;;;5071977;28;20170;-79
2022/12/07 09:51:18;;;;;;;35.23;19.70;;;;;;;;;;5054335;28;20021;-79
2022/12/07 09:53:45;;;;;;;37.70;18.87;;;;;;;;;;5077441;28;20024;-76
2022/12/07 09:56:15;;;;;;;30.13;17.43;;;;;;;;;;5061433;28;20112;-77
2022/12/07 09:58:41;;;;;;;27.27;16.63;;;;;;;;;;5054985;28;20029;-77
2022/12/07 10:01:17;;;;;;;31.43;17.10;;;;;;;;;;5060365;28;20433;-78
2022/12/07 10:03:51;;;;;;;27.30;16.70;;;;;;;;;;5059054;28;20028;-77
2022/12/07 10:06:17;;;;;;;34.37;15.23;;;;;;;;;;5053304;28;20029;-78
2022/12/07 10:08:43;;;;;;;28.83;16.13;;;;;;;;;;5068895;28;20017;-77
2022/12/07 10:11:10;;;;;;;30.80;16.50;;;;;;;;;;5060072;28;20437;-79
2022/12/07 10:13:36;;;;;;;30.43;15.13;;;;;;;;;;5056031;28;20095;-78
2022/12/07 10:16:02;;;;;;;28.03;15.73;;;;;;;;;;5067906;28;20020;-77
2022/12/07 10:18:30;;;;;;;34.20;15.47;;;;;;;;;;5064236;28;20017;-77
2022/12/07 10:21:03;;;;;;;32.67;15.67;;;;;;;;;;5054167;28;20021;-77
2022/12/07 10:23:29;;;;;;;26.48;15.88;;;;;;;;;;5059843;28;20646;-78
2022/12/07 10:25:55;;;;;;;25.80;16.23;;;;;;;;;;5051064;28;20044;-78
2022/12/07 10:28:23;;;;;;;30.33;17.73;;;;;;;;;;5060505;28;20021;-77
2022/12/07 10:30:52;;;;;;;28.37;16.53;;;;;;;;;;5053576;28;20021;-78
2022/12/07 10:33:42;;;;;;;32.07;17.20;;;;;;;;;;5051277;28;20029;-77
2022/12/07 10:36:22;;;;;;;30.50;16.13;;;;;;;;;;5048313;28;20033;-77
2022/12/07 10:38:52;;;;;;;29.77;17.37;;;;;;;;;;5062806;28;20469;-77
2022/12/07 10:41:21;;;;;;;27.43;16.73;;;;;;;;;;5059154;28;20124;-77
2022/12/07 10:43:47;;;;;;;27.87;14.67;;;;;;;;;;5054393;28;20116;-77
2022/12/07 10:46:20;;;;;;;30.10;15.33;;;;;;;;;;5059425;28;20032;-77
2022/12/07 10:48:55;;;;;;;31.88;16.08;;;;;;;;;;5066406;28;20026;-78
2022/12/07 10:51:27;;;;;;;28.33;15.10;;;;;;;;;;5058545;28;20148;-78
2022/12/07 10:54:19;;;;;;;31.02;15.05;;;;;;;;;;5058719;28;20025;-78
2022/12/07 10:56:52;;;;;;;26.05;13.80;;;;;;;;;;5046007;28;20040;-78
2022/12/07 10:59:40;;;;;;;26.70;14.45;;;;;;;;;;5046168;28;20032;-78
2022/12/07 11:02:39;;;;;;;28.93;13.83;;;;;;;;;;5075265;28;20442;-78
2022/12/07 11:05:22;;;;;;;25.67;13.00;;;;;;;;;;5029662;28;20036;-77
2022/12/07 11:08:07;;;;;;;28.17;12.77;;;;;;;;;;5053329;28;20025;-79
2022/12/07 11:10:39;;;;;;;27.67;12.03;;;;;;;;;;5053353;28;20021;-78
2022/12/07 11:13:17;;;;;;;19.60;12.02;;;;;;;;;;5067357;28;20036;-77
2022/12/07 11:16:19;;;;;;;23.77;13.97;;;;;;;;;;5049522;28;20040;-78
2022/12/07 11:18:51;;;;;;;23.97;13.33;;;;;;;;;;5001805;28;20030;-77
2022/12/07 11:21:36;;;;;;;24.90;13.33;;;;;;;;;;5039520;28;20029;-79
2022/12/07 11:24:07;;;;;;;23.23;12.57;;;;;;;;;;5049561;28;20044;-78
2022/12/07 11:26:48;;;;;;;23.97;12.10;;;;;;;;;;5048139;28;20022;-78
2022/12/07 11:29:27;;;;;;;27.33;12.90;;;;;;;;;;5065173;28;20025;-78
2022/12/07 11:31:56;;;;;;;23.23;12.07;;;;;;;;;;5061099;28;20037;-78
2022/12/07 11:34:33;;;;;;;20.27;11.20;;;;;;;;;;5063653;28;20095;-78
2022/12/07 11:37:04;;;;;;;23.10;11.57;;;;;;;;;;5062048;28;20077;-78
2022/12/07 11:39:40;;;;;;;24.17;11.33;;;;;;;;;;5048670;28;20048;-78
2022/12/07 11:42:19;;;;;;;21.17;11.53;;;;;;;;;;5064305;28;20037;-78
2022/12/07 11:44:53;;;;;;;24.23;12.10;;;;;;;;;;5046190;28;20033;-78
2022/12/07 11:47:19;;;;;;;24.50;12.33;;;;;;;;;;5060187;28;20036;-78
2022/12/07 11:49:56;;;;;;;28.37;12.20;;;;;;;;;;5058181;28;20021;-78
2022/12/07 11:52:24;;;;;;;22.27;12.20;;;;;;;;;;5047648;28;20057;-78
2022/12/07 11:54:51;;;;;;;28.50;12.17;;;;;;;;;;5063979;28;20052;-78
2022/12/07 11:57:37;;;;;;;25.67;12.33;;;;;;;;;;5048243;28;20067;-79
2022/12/07 12:00:07;;;;;;;24.13;14.50;;;;;;;;;;5060023;28;20045;-77
2022/12/07 12:02:38;;;;;;;27.87;12.93;;;;;;;;;;5059314;28;20036;-78
2022/12/07 12:05:15;;;;;;;27.43;13.67;;;;;;;;;;5061574;28;20132;-78
2022/12/07 12:07:42;;;;;;;28.20;14.27;;;;;;;;;;5065746;28;20026;-78
2022/12/07 12:10:27;;;;;;;28.80;15.03;;;;;;;;;;5045700;28;20470;-77
2022/12/07 12:13:18;;;;;;;35.57;16.90;;;;;;;;;;5047188;28;20040;-78
2022/12/07 12:15:58;;;;;;;29.87;15.97;;;;;;;;;;5060461;28;20196;-78
2022/12/07 12:18:30;;;;;;;33.10;14.90;;;;;;;;;;5062612;28;20468;-78
2022/12/07 12:21:01;;;;;;;32.63;17.98;;;;;;;;;;5063161;28;20044;-78
2022/12/07 12:23:44;;;;;;;27.57;15.63;;;;;;;;;;5051806;28;20033;-78
2022/12/07 12:26:22;;;;;;;30.53;15.67;;;;;;;;;;5052690;28;20515;-78
2022/12/07 12:28:59;;;;;;;31.13;15.80;;;;;;;;;;5061816;28;20071;-78
2022/12/07 12:31:28;;;;;;;25.63;15.00;;;;;;;;;;5061320;28;20373;-78
2022/12/07 12:33:55;;;;;;;31.10;14.87;;;;;;;;;;5062982;28;20024;-78
2022/12/07 12:36:39;;;;;;;34.70;15.07;;;;;;;;;;5043794;28;20028;-79
2022/12/07 12:39:10;;;;;;;26.77;14.17;;;;;;;;;;5061502;28;20088;-77
2022/12/07 12:42:18;;;;;;;24.93;13.77;;;;;;;;;;5061317;28;20032;-79
2022/12/07 12:44:34;;;;;;;30.67;13.93;;;;;;;;;;5037386;28;20028;-78
2022/12/07 12:47:04;;;;;;;28.40;14.03;;;;;;;;;;5060216;28;20498;-78
2022/12/07 12:49:35;;;;;;;25.53;14.60;;;;;;;;;;5060087;28;20038;-78
2022/12/07 12:52:20;;;;;;;27.60;13.40;;;;;;;;;;5046129;28;20033;-78
2022/12/07 12:54:58;;;;;;;24.10;13.37;;;;;;;;;;5061498;28;20033;-79
2022/12/07 12:57:24;;;;;;;25.33;13.13;;;;;;;;;;5041998;28;20032;-78
2022/12/07 12:59:53;;;;;;;23.83;11.63;;;;;;;;;;5064357;28;20033;-77
2022/12/07 13:02:22;;;;;;;21.77;11.93;;;;;;;;;;5046058;28;20036;-79
2022/12/07 13:04:53;;;;;;;22.10;11.63;;;;;;;;;;5060288;28;20021;-79
2022/12/07 13:07:38;;;;;;;25.40;12.10;;;;;;;;;;5048016;28;20029;-78
2022/12/07 13:10:07;;;;;;;25.10;12.37;;;;;;;;;;5059497;28;20430;-78
2022/12/07 13:12:33;;;;;;;24.23;12.23;;;;;;;;;;5045815;28;20029;-78
2022/12/07 13:14:59;;;;;;;25.50;12.40;;;;;;;;;;5050677;28;20029;-79
2022/12/07 13:17:31;;;;;;;21.17;12.13;;;;;;;;;;5052045;28;20112;-78
2022/12/07 13:19:59;;;;;;;19.38;11.85;;;;;;;;;;5053074;28;20043;-78
2022/12/07 13:22:31;;;;;;;21.00;11.80;;;;;;;;;;5051867;28;20021;-79
2022/12/07 13:25:13;;;;;;;22.25;13.07;;;;;;;;;;5054949;28;20028;-79
2022/12/07 13:27:44;;;;;;;24.85;11.75;;;;;;;;;;5055188;28;20381;-79
2022/12/07 13:30:14;;;;;;;22.67;12.20;;;;;;;;;;5056313;28;20035;-79
2022/12/07 13:32:40;;;;;;;26.73;13.30;;;;;;;;;;5055322;28;20033;-79
2022/12/07 13:35:26;;;;;;;25.73;11.63;;;;;;;;;;5051263;28;20026;-78
2022/12/07 13:37:52;;;;;;;20.50;11.17;;;;;;;;;;5049176;28;20086;-79
2022/12/07 13:40:22;;;;;;;23.00;12.10;;;;;;;;;;5055045;28;20102;-79
2022/12/07 13:42:48;;;;;;;20.50;12.13;;;;;;;;;;5040243;28;20105;-78
2022/12/07 13:45:21;;;;;;;19.43;11.10;;;;;;;;;;5056558;28;20039;-78
2022/12/07 13:47:50;;;;;;;25.90;12.17;;;;;;;;;;5055969;28;20558;-77
2022/12/07 13:50:26;;;;;;;25.23;11.73;;;;;;;;;;5061052;28;20025;-78
2022/12/07 13:52:55;;;;;;;23.90;11.30;;;;;;;;;;5054648;28;20033;-78
2022/12/07 13:55:21;;;;;;;23.97;10.53;;;;;;;;;;5053836;28;20119;-78
2022/12/07 13:57:49;;;;;;;27.33;13.10;;;;;;;;;;5039600;28;20100;-78
2022/12/07 14:00:17;;;;;;;22.50;11.33;;;;;;;;;;5062051;28;20055;-78
2022/12/07 14:02:55;;;;;;;21.50;10.83;;;;;;;;;;5050392;28;20068;-78
2022/12/07 14:05:26;;;;;;;20.47;10.53;;;;;;;;;;5053564;28;20097;-78
2022/12/07 14:07:55;;;;;;;22.83;11.20;;;;;;;;;;5058100;28;20098;-78
2022/12/07 14:10:24;;;;;;;19.27;10.43;;;;;;;;;;5054205;28;20021;-78
2022/12/07 14:12:51;;;;;;;21.90;10.87;;;;;;;;;;5064758;28;20055;-78
2022/12/07 14:15:21;;;;;;;17.70;11.13;;;;;;;;;;5047502;28;20033;-78
2022/12/07 14:17:51;;;;;;;24.07;11.80;;;;;;;;;;5054033;28;20428;-78
2022/12/07 14:20:33;;;;;;;19.70;11.90;;;;;;;;;;5054009;28;20095;-79
2022/12/07 14:22:59;;;;;;;23.83;11.63;;;;;;;;;;5053712;28;20025;-78
2022/12/07 14:25:44;;;;;;;24.20;11.90;;;;;;;;;;5054745;28;20044;-78
2022/12/07 14:28:24;;;;;;;23.27;11.10;;;;;;;;;;5072395;28;20025;-78
2022/12/07 14:30:50;;;;;;;23.03;13.10;;;;;;;;;;5050351;28;20036;-78
2022/12/07 14:33:17;;;;;;;22.70;12.70;;;;;;;;;;5053961;28;20033;-78